Gallatin, MO

7:21 AM CST on February 27, 2015 (GMT -0600)
Lake Viking | Change Station
CLOSE
Current Station
Personal Weather Station
Location: Gallatin, MO
Elevation: 909 ft
Nearby Weather Stations

Elev 909 ft 39.92 °N, 94.06 °W | Updated 9 minutes ago

Clear
Clear
-0.8 °F
Feels Like -1 °F
N
2.7
Wind Variable Wind from SSW

Today
High -- | Low -- °F
--% Chance of Precip.
Yesterday
High -- | Low -- °F
Precip. -- in
6:52 AM 6:05 PM
Waxing Gibbous, 68% visible
Pressure 30.64 in
Visibility 10.0 miles
Clouds Clear
Windchill -1 °F
Dew Point -4 °F
Humidity 85%
Rainfall 0.00 in
Snow Depth Not available.
UV 0 out of 12
Pollen .50 out of 12
Air Quality Not available.
Flu Activity Not available.
METAR KGPH 271315Z AUTO 00000KT 10SM CLR M16/M18 A3064 RMK AO2

More Conditions Fewer Conditions

Pressure 30.64 in
Visibility 10.0 miles
Clouds Clear
Windchill -1 °F
Dew Point -4 °F
Humidity 85%
Rainfall 0.00 in
Snow Depth Not available.
UV 0 out of 12
Pollen .50 out of 12
Air Quality Not available.
Flu Activity Not available.
METAR KGPH 271315Z AUTO 00000KT 10SM CLR M16/M18 A3064 RMK AO2

More Conditions Fewer Conditions

10-Day Weather Forecast

Almanac

Astronomy

Feb. 27, 2015 Rise Set
Actual Time
Civil Twilight
Nautical Twilight
Astronomical Twilight
Moon
Length of Visible Light
Length of Day
Tomorrow will be .
, % of the Moon is Illuminated

Today's Extremes

State Highs State Lows

Community

WunderPhotos

Upload Photos

1,800,673 photos uploaded!

WunderBlogs® & News

Nearby

Air Quality

  Air Quality AQ Index Pollutant
Not available.

Snow Depth

Station Depth Elevation

Earthquake Activity

City Distance Mag. Time & Date
Minimum magnitude displayed is 2.5.

Coastal Water Temperatures

Place Temperature

Nearby Weather Stations